KPQI/PQI METAR and TAF weather

Enter ICAO airport designator
Station Type Date Time Source
KPQI METAR 2019/10/23 12:56 UTC NOAA

KPQI 231256Z AUTO 09006KT 2 1/2SM -RA BR BKN009 OVC013 07/06 A2991 RMK AO2 CIG 007V011 SLP157 P0011 T00720061


Station Type Date Time Source
KPQI Decoded METAR 2019/10/23 12:56 UTC NOAA

Presque Isle, ME, United States (KPQI) 46-41N 068-03W 146M
Oct 23, 2019 - 08:56 AM EDT / 2019.10.23 1256 UTC
Wind: from the E (090 degrees) at 7 MPH (6 KT):0
Visibility: 2 1/2 mile(s):0
Sky conditions: overcast
Weather: light rain; mist
Precipitation last hour: 0.11 inches
Temperature: 45.0 F (7.2 C)
Dew Point: 43.0 F (6.1 C)
Relative Humidity: 92%
Pressure (altimeter): 29.91 in. Hg (1012 hPa)
ob: KPQI 231256Z AUTO 09006KT 2 1/2SM -RA BR BKN009 OVC013 07/06 A2991 RMK AO2 CIG 007V011 SLP157 P0011 T00720061
cycle: 13

Station Type Date Time Source
KPQI TAF 2019/10/23 12:28 UTC NOAA

TAF KPQI 231126Z 2312/2412 11008KT 6SM -RA OVC025
FM231300 12010G20KT 3SM -RA BR OVC015
FM231500 10012G22KT 1SM RA BR OVC008
FM231900 06008KT 3SM -RA BR OVC006
FM232200 26005KT P6SM VCSH OVC020
FM240000 28007KT P6SM BKN035

Example: see airport list